Latest Coastal Weather Observations for Troughton Island

IDW60701

Issued at 11:42 am WST Sunday 25 January 2015 (issued every 10 minutes, with the page automatically refreshed every 10 minutes)

About coastal observations | Map of coastal stations | Coastal observations for WA | Marine services | Other Formats
Station Details ID: 001007 Name: TROUGHTON ISLAND Lat: -13.75 Lon: 126.15 Height: 6.0 m
Data from the previous 72 hours. | See also: Recent months at Troughton Island
Date/Time
WST
Temp

°C
Wind Pressure Rain
since 9am
mm
Weather Cloud Vis
km
Sea
Height
m
Swell
Dir
 
Speed
knots
Gust
knots
hPa Trend Height
m
Period
s
Dir
25/11:30am 31.7 W 14 17 1010.2 - 0.0 - - - - - - -
25/11:00am 31.8 W 14 18 1010.2 - 0.0 - - - - - - -
25/10:30am 31.6 W 14 17 1010.4 - 0.0 - - - - - - -
25/10:00am 30.8 W 14 17 1010.4 - 0.0 - - - - - - -
25/09:30am 31.0 W 15 17 1010.4 - 0.0 - - - - - - -
25/09:00am 30.8 WNW 14 17 1010.1 - 0.0 - - - - - - -
25/08:30am 30.2 W 14 16 1010.1 - 0.0 - - - - - - -
25/08:00am 30.1 WNW 14 16 1009.9 - 0.0 - - - - - - -
25/07:30am 30.1 WNW 13 15 1009.4 - 0.0 - - - - - - -
25/07:00am 29.5 WNW 14 16 1009.1 - 0.0 - - - - - - -
25/06:30am 29.0 WNW 12 14 1008.8 - 0.0 - - - - - - -
25/06:00am 28.8 WNW 12 14 1008.5 - 0.0 - - - - - - -
25/05:30am 28.5 WNW 12 14 1008.3 - 0.0 - - - - - - -
25/05:00am 28.6 W 12 14 1007.5 - 0.0 - - - - - - -
25/04:30am 28.5 W 12 14 1007.2 - 0.0 - - - - - - -
25/04:00am 28.6 W 13 15 1006.7 - 0.0 - - - - - - -
25/03:30am 28.6 W 14 16 1006.6 - 0.0 - - - - - - -
25/03:00am 28.8 W 15 18 1006.5 - 0.0 - - - - - - -
25/02:30am 28.6 W 13 17 1006.6 - 0.0 - - - - - - -
25/02:00am 28.7 W 15 18 1006.9 - 0.0 - - - - - - -
25/01:30am 28.8 WSW 17 20 1007.4 - 0.0 - - - - - - -
25/01:00am 28.8 WSW 16 19 1007.7 - 0.0 - - - - - - -
25/12:30am 28.9 W 16 19 1007.9 - 0.0 - - - - - - -
25/12:00am 28.9 W 15 19 1007.9 - 0.0 - - - - - - -
 
Date/Time
WST
Temp

°C
Wind Pressure Rain
since 9am
mm
Weather Cloud Vis
km
Sea
Height
m
Swell
Dir
 
Speed
knots
Gust
knots
hPa Trend Height
m
Period
s
Dir
24/11:30pm 28.9 W 15 16 1008.4 - 0.0 - - - - - - -
24/11:00pm 29.1 W 15 17 1008.7 - 0.0 - - - - - - -
24/10:30pm 29.0 W 14 17 1008.9 - 0.0 - - - - - - -
24/10:00pm 28.9 W 15 17 1009.0 - 0.0 - - - - - - -
24/09:30pm 29.0 W 15 18 1009.0 - 0.0 - - - - - - -
24/09:00pm 29.0 W 15 18 1008.6 - 0.0 - - - - - - -
24/08:30pm 29.1 W 15 18 1008.9 - 0.0 - - - - - - -
24/08:00pm 29.2 W 16 20 1008.8 - 0.0 - - - - - - -
24/07:30pm 29.2 WNW 17 19 1008.1 - 0.0 - - - - - - -
24/07:00pm 29.2 W 14 16 1007.8 - 0.0 - - - - - - -
24/06:30pm 29.3 W 15 17 1007.6 - 0.0 - - - - - - -
24/06:00pm 29.5 W 17 19 1007.7 - 0.0 - - - - - - -
24/05:30pm 30.2 W 16 19 1007.1 - 0.0 - - - - - - -
24/05:00pm 30.4 W 17 21 1006.2 - 0.0 - - - - - - -
24/04:30pm 30.7 W 18 21 1005.7 - 0.0 - - - - - - -
24/04:00pm 30.7 W 19 21 1005.2 - 0.0 - - - - - - -
24/03:30pm 31.0 W 18 21 1005.6 - 0.0 - - - - - - -
24/03:00pm 31.2 W 17 21 1005.8 - 0.0 - - - - - - -
24/02:30pm 31.7 W 16 19 1006.2 - 0.0 - - - - - - -
24/02:00pm 31.5 WSW 16 19 1006.3 - 0.0 - - - - - - -
24/01:30pm 31.4 WSW 16 19 1006.4 - 0.0 - - - - - - -
24/01:00pm 30.8 W 17 20 1006.7 - 0.0 - - - - - - -
24/12:30pm 31.4 W 15 18 1007.0 - 0.0 - - - - - - -
24/12:00pm 31.4 W 15 19 1007.4 - 0.0 - - - - - - -
24/11:30am 31.7 WSW 16 19 1007.6 - 0.0 - - - - - - -
24/11:00am 31.2 WSW 15 18 1007.7 - 0.0 - - - - - - -
24/10:30am 30.6 WSW 16 18 1008.1 - 0.0 - - - - - - -
24/10:00am 30.4 WSW 15 18 1008.5 - 0.0 - - - - - - -
24/09:30am 30.5 WSW 16 19 1008.5 - 0.0 - - - - - - -
24/09:00am 30.6 WSW 15 18 1008.3 - 0.0 - - - - - - -
24/08:30am 30.2 WSW 14 17 1008.2 - 0.0 - - - - - - -
24/08:00am 29.5 WSW 16 19 1008.0 - 0.0 - - - - - - -
24/07:30am 29.2 WSW 16 19 1007.9 - 0.0 - - - - - - -
24/07:00am 29.0 WSW 18 20 1007.8 - 0.0 - - - - - - -
24/06:30am 28.8 WSW 18 22 1007.5 - 0.0 - - - - - - -
24/06:00am 28.8 W 17 21 1007.2 - 0.0 - - - - - - -
24/05:30am 28.7 W 18 21 1007.0 - 0.0 - - - - - - -
24/05:00am 28.7 W 19 23 1006.5 - 0.0 - - - - - - -
24/04:30am 28.7 W 19 23 1006.4 - 0.0 - - - - - - -
24/04:00am 28.8 W 20 23 1006.3 - 0.0 - - - - - - -
24/03:30am 28.8 W 19 22 1006.4 - 0.0 - - - - - - -
24/03:00am 28.9 W 19 23 1006.3 - 0.0 - - - - - - -
24/02:30am 28.9 W 18 21 1006.6 - 0.0 - - - - - - -
24/02:00am 29.0 W 18 20 1006.8 - 0.0 - - - - - - -
24/01:30am 28.9 W 17 20 1007.2 - 0.0 - - - - - - -
24/01:00am 28.9 W 17 20 1007.3 - 0.0 - - - - - - -
24/12:30am 29.0 W 17 20 1007.5 - 0.0 - - - - - - -
24/12:00am 28.9 W 17 21 1007.5 - 0.0 - - - - - - -
 
Date/Time
WST
Temp

°C
Wind Pressure Rain
since 9am
mm
Weather Cloud Vis
km
Sea
Height
m
Swell
Dir
 
Speed
knots
Gust
knots
hPa Trend Height
m
Period
s
Dir
23/11:30pm 28.9 W 17 21 1007.7 - 0.0 - - - - - - -
23/11:00pm 29.0 W 17 21 1008.2 - 0.0 - - - - - - -
23/10:30pm 29.0 W 15 20 1008.2 - 0.0 - - - - - - -
23/10:00pm 29.0 WSW 18 21 1008.0 - 0.0 - - - - - - -
23/09:30pm 29.1 W 19 22 1008.1 - 0.0 - - - - - - -
23/09:00pm 29.0 W 19 22 1008.0 - 0.0 - - - - - - -
23/08:30pm 29.1 W 18 22 1008.2 - 0.0 - - - - - - -
23/08:00pm 29.0 W 19 24 1008.2 - 0.0 - - - - - - -
23/07:30pm 29.0 WSW 19 23 1007.4 - 0.0 - - - - - - -
23/07:00pm 29.1 W 19 22 1007.3 - 0.0 - - - - - - -
23/06:30pm 29.2 W 20 24 1006.8 - 0.0 - - - - - - -
23/06:00pm 29.3 W 21 26 1006.0 - 0.0 - - - - - - -
23/05:30pm 29.5 W 21 25 1005.7 - 0.0 - - - - - - -
23/05:00pm 29.8 W 22 27 1005.1 - 0.0 - - - - - - -
23/04:30pm 30.0 W 23 27 1005.0 - 0.0 - - - - - - -
23/04:00pm 30.1 W 21 25 1004.7 - 0.0 - - - - - - -
23/03:30pm 30.3 W 21 25 1004.5 - 0.0 - - - - - - -
23/03:00pm 30.4 W 20 24 1004.7 - 0.0 - - - - - - -
23/02:30pm 30.7 W 19 22 1005.3 - 0.0 - - - - - - -
23/02:00pm 30.5 W 18 21 1005.8 - 0.0 - - - - - - -
23/01:30pm 30.7 WSW 17 20 1005.7 - 0.0 - - - - - - -
23/01:00pm 30.8 W 19 23 1005.7 - 0.0 - - - - - - -
23/12:30pm 31.3 W 19 24 1006.0 - 0.0 - - - - - - -
23/12:00pm 31.2 W 19 23 1006.3 - 0.0 - - - - - - -
23/11:30am 31.1 W 19 21 1007.0 - 0.0 - - - - - - -
23/11:00am 30.9 WSW 18 22 1007.0 - 0.0 - - - - - - -
23/10:30am 30.7 WSW 20 23 1007.0 - 0.0 - - - - - - -
23/10:00am 30.3 WSW 21 25 1007.2 - 0.0 - - - - - - -
23/09:30am 30.5 W 17 23 1008.1 - 0.0 - - - - - - -
23/09:00am 30.3 W 20 24 1008.3 - 0.0 - - - - - - -
23/08:30am 29.8 W 21 25 1008.3 - 0.0 - - - - - - -
23/08:00am 29.9 W 20 25 1008.2 - 0.0 - - - - - - -
23/07:30am 29.2 WSW 21 26 1008.0 - 0.0 - - - - - - -
23/07:00am 29.1 WSW 19 23 1008.0 - 0.0 - - - - - - -
23/06:30am 28.8 WSW 21 25 1007.8 - 0.0 - - - - - - -
23/06:00am 28.6 WSW 21 26 1007.6 - 0.0 - - - - - - -
23/05:30am 28.6 W 22 26 1007.2 - 0.0 - - - - - - -
23/05:00am 28.7 W 22 26 1006.6 - 0.0 - - - - - - -
23/04:30am 28.7 W 24 28 1006.0 - 0.0 - - - - - - -
23/04:00am 28.7 W 24 28 1005.6 - 0.0 - - - - - - -
23/03:30am 28.8 W 21 25 1005.9 - 0.0 - - - - - - -
23/03:00am 28.8 W 21 24 1006.1 - 0.0 - - - - - - -
23/02:30am 28.9 W 20 23 1006.1 - 0.0 - - - - - - -
23/02:00am 28.8 W 20 24 1006.1 - 0.0 - - - - - - -
23/01:30am 28.9 W 19 23 1006.2 - 0.0 - - - - - - -
23/01:00am 28.8 W 19 22 1006.3 - 0.0 - - - - - - -
23/12:30am 28.8 W 20 24 1006.4 - 0.0 - - - - - - -
23/12:00am 28.9 W 19 23 1006.6 - 0.0 - - - - - - -
 
Date/Time
WST
Temp

°C
Wind Pressure Rain
since 9am
mm
Weather Cloud Vis
km
Sea
Height
m
Swell
Dir
 
Speed
knots
Gust
knots
hPa Trend Height
m
Period
s
Dir
22/11:30pm 28.8 W 19 24 1006.7 - 0.0 - - - - - - -
22/11:00pm 29.0 W 20 24 1007.2 - 0.0 - - - - - - -
22/10:30pm 29.0 WSW 20 24 1007.4 - 0.0 - - - - - - -
22/10:00pm 29.0 W 20 25 1007.4 - 0.0 - - - - - - -
22/09:30pm 29.1 W 20 24 1007.5 - 0.0 - - - - - - -
22/09:00pm 29.0 W 20 25 1007.3 - 0.0 - - - - - - -
22/08:30pm 28.9 W 20 25 1007.2 - 0.0 - - - - - - -
22/08:00pm 28.9 W 19 23 1007.2 - 0.0 - - - - - - -
22/07:30pm 29.0 W 20 25 1007.2 - 0.0 - - - - - - -
22/07:00pm 29.1 WSW 22 27 1006.7 - 0.0 - - - - - - -
22/06:30pm 29.0 W 22 26 1006.2 - 0.0 - - - - - - -
22/06:00pm 29.2 W 22 26 1005.8 - 0.0 - - - - - - -
22/05:30pm 29.4 W 23 27 1005.6 - 0.0 - - - - - - -
22/05:00pm 29.8 W 24 28 1005.4 - 0.0 - - - - - - -
22/04:30pm 30.1 W 23 27 1005.3 - 0.0 - - - - - - -
22/04:00pm 30.2 W 25 29 1005.2 - 0.0 - - - - - - -
22/03:30pm 30.5 W 25 29 1005.3 - 0.0 - - - - - - -
22/03:00pm 30.6 W 23 28 1005.7 - 0.0 - - - - - - -
22/02:30pm 30.8 W 22 26 1006.3 - 0.0 - - - - - - -
22/02:00pm 30.9 W 22 27 1006.8 - 0.0 - - - - - - -
22/01:30pm 31.0 WSW 22 27 1007.2 - 0.0 - - - - - - -
22/01:00pm 30.9 W 22 26 1007.5 - 0.0 - - - - - - -
22/12:30pm 30.8 WSW 22 28 1007.6 - 0.0 - - - - - - -
22/12:00pm 30.9 WSW 21 25 1008.0 - 0.0 - - - - - - -

Other Formats:

Comma delimited format used in spreadsheet applications
http://www.bom.gov.au/fwo/IDW60701/IDW60701.94102.axf

JavaScript Object Notation format (JSON) in row-major order
http://www.bom.gov.au/fwo/IDW60701/IDW60701.94102.json